createdAt,value
2024-01-16T00:02:06.459Z,31.60
2024-01-16T00:04:33.647Z,36.58
2024-01-16T00:07:01.368Z,30.90
2024-01-16T00:09:28.498Z,34.45
2024-01-16T00:11:55.618Z,31.83
2024-01-16T00:14:22.749Z,39.50
2024-01-16T00:16:49.990Z,33.50
2024-01-16T00:19:17.233Z,33.97
2024-01-16T00:21:47.212Z,33.95
2024-01-16T00:24:17.300Z,30.90
2024-01-16T00:26:44.923Z,37.42
2024-01-16T00:29:13.424Z,34.90
2024-01-16T00:31:41.136Z,34.17
2024-01-16T00:34:08.916Z,35.10
2024-01-16T00:36:36.107Z,33.15
2024-01-16T00:39:04.252Z,35.88
2024-01-16T00:41:31.553Z,35.50
2024-01-16T00:43:58.727Z,34.42
2024-01-16T00:46:25.839Z,35.45
2024-01-16T00:48:53.090Z,35.60
2024-01-16T00:51:20.223Z,34.08
2024-01-16T00:53:47.477Z,36.17
2024-01-16T00:56:14.882Z,37.88
2024-01-16T00:58:42.096Z,36.03
2024-01-16T01:01:09.342Z,32.13
2024-01-16T01:03:36.587Z,35.55
2024-01-16T01:06:03.994Z,34.63
2024-01-16T01:08:31.310Z,33.03
2024-01-16T01:10:58.477Z,33.50
2024-01-16T01:13:26.383Z,31.83
2024-01-16T01:15:53.746Z,30.60
2024-01-16T01:18:21.170Z,31.88
2024-01-16T01:20:48.800Z,30.63
2024-01-16T01:23:16.037Z,33.17
2024-01-16T01:25:43.856Z,29.00
2024-01-16T01:28:11.594Z,30.52
2024-01-16T01:30:39.084Z,33.60
2024-01-16T01:33:06.863Z,31.67
2024-01-16T01:35:34.241Z,35.75
2024-01-16T01:38:01.396Z,35.10
2024-01-16T01:40:28.492Z,36.17
2024-01-16T01:42:55.717Z,41.03
2024-01-16T01:45:22.829Z,37.70
2024-01-16T01:47:50.539Z,38.10
2024-01-16T01:50:18.313Z,30.50
2024-01-16T01:52:45.558Z,31.70
2024-01-16T01:55:14.418Z,36.20
2024-01-16T01:57:44.165Z,34.58
2024-01-16T02:00:12.079Z,36.53
2024-01-16T02:02:39.217Z,32.00
2024-01-16T02:05:06.682Z,32.28
2024-01-16T02:07:35.221Z,34.30
2024-01-16T02:10:02.370Z,32.85
2024-01-16T02:12:29.485Z,35.78
2024-01-16T02:14:56.749Z,36.58
2024-01-16T02:17:23.908Z,34.58
2024-01-16T02:19:51.037Z,35.88
2024-01-16T02:22:22.606Z,35.75
2024-01-16T02:24:50.178Z,33.90
2024-01-16T02:27:17.324Z,32.60
2024-01-16T02:29:44.942Z,35.72
2024-01-16T02:32:14.442Z,33.40
2024-01-16T02:34:42.559Z,36.20
2024-01-16T02:37:09.942Z,32.50
2024-01-16T02:39:37.185Z,31.90
2024-01-16T02:42:04.359Z,33.70
2024-01-16T02:44:31.599Z,31.35
2024-01-16T02:46:58.791Z,30.80
2024-01-16T02:49:27.290Z,29.17
2024-01-16T02:51:55.876Z,30.77
2024-01-16T02:54:24.065Z,30.35
2024-01-16T02:56:51.438Z,31.50
2024-01-16T02:59:18.729Z,36.58
2024-01-16T03:01:45.841Z,32.08
2024-01-16T03:04:13.037Z,32.33
2024-01-16T03:06:40.480Z,32.80
2024-01-16T03:09:07.776Z,31.05
2024-01-16T03:11:35.063Z,36.50
2024-01-16T03:14:02.705Z,33.03
2024-01-16T03:16:29.884Z,35.55
2024-01-16T03:18:57.269Z,31.05
2024-01-16T03:21:24.723Z,30.48
2024-01-16T03:23:52.225Z,30.52
2024-01-16T03:26:19.595Z,30.13
2024-01-16T03:28:46.920Z,33.92
2024-01-16T03:31:18.575Z,37.25
2024-01-16T03:33:45.852Z,40.08
2024-01-16T03:36:14.556Z,42.78
2024-01-16T03:38:42.154Z,43.20
2024-01-16T03:41:09.602Z,41.20
2024-01-16T03:43:37.089Z,32.70
2024-01-16T03:46:04.429Z,39.30
2024-01-16T03:48:31.681Z,36.13
2024-01-16T03:50:59.050Z,34.70
2024-01-16T03:53:26.276Z,35.05
2024-01-16T03:55:53.431Z,30.45
2024-01-16T03:58:20.734Z,31.42
2024-01-16T04:00:51.579Z,33.13
2024-01-16T04:03:19.231Z,30.00
2024-01-16T04:05:46.530Z,32.90
2024-01-16T04:08:14.375Z,31.08
2024-01-16T04:10:41.618Z,33.33
2024-01-16T04:13:08.810Z,30.35
2024-01-16T04:15:35.931Z,33.10
2024-01-16T04:18:03.029Z,36.58
2024-01-16T04:20:30.278Z,34.20
2024-01-16T04:22:59.016Z,32.33
2024-01-16T04:25:26.171Z,33.40
2024-01-16T04:27:53.318Z,35.88
2024-01-16T04:30:21.403Z,31.98
2024-01-16T04:32:48.674Z,36.60
2024-01-16T04:35:16.135Z,34.50
2024-01-16T04:37:43.262Z,36.47
2024-01-16T04:40:10.548Z,36.00
2024-01-16T04:42:37.722Z,30.80
2024-01-16T04:45:05.034Z,33.85
2024-01-16T04:47:32.466Z,33.72
2024-01-16T04:49:59.766Z,32.22
2024-01-16T04:52:26.880Z,28.42
2024-01-16T04:54:54.161Z,26.48
2024-01-16T04:57:21.342Z,28.98
2024-01-16T04:59:48.469Z,25.77
2024-01-16T05:02:18.117Z,27.80
2024-01-16T05:04:45.578Z,27.63
2024-01-16T05:07:12.708Z,29.83
2024-01-16T05:09:39.799Z,29.25
2024-01-16T05:12:07.115Z,27.67
2024-01-16T05:14:34.326Z,31.35
2024-01-16T05:17:01.484Z,27.75
2024-01-16T05:19:28.699Z,29.20
2024-01-16T05:21:56.149Z,27.30
2024-01-16T05:24:23.239Z,30.55
2024-01-16T05:26:50.504Z,30.80
2024-01-16T05:29:18.709Z,30.23
2024-01-16T05:31:45.871Z,33.22
2024-01-16T05:34:13.191Z,33.13
2024-01-16T05:36:40.543Z,33.55
2024-01-16T05:39:09.082Z,34.67
2024-01-16T05:41:36.855Z,32.15
2024-01-16T05:44:06.978Z,35.53
2024-01-16T05:46:34.425Z,30.42
2024-01-16T05:49:02.318Z,31.15
2024-01-16T05:51:30.587Z,35.83
2024-01-16T05:53:58.211Z,33.13
2024-01-16T05:56:25.437Z,35.83
2024-01-16T05:58:53.328Z,31.77
2024-01-16T06:01:20.598Z,31.75
2024-01-16T06:03:50.207Z,33.13
2024-01-16T06:06:18.085Z,32.08
2024-01-16T06:08:45.507Z,33.25
2024-01-16T06:11:15.024Z,32.25
2024-01-16T06:13:42.633Z,34.63
2024-01-16T06:16:09.775Z,32.35
2024-01-16T06:18:37.448Z,37.70
2024-01-16T06:21:04.918Z,33.20
2024-01-16T06:23:32.125Z,34.95
2024-01-16T06:25:59.454Z,30.17
2024-01-16T06:28:26.945Z,28.80
2024-01-16T06:30:54.122Z,29.88
2024-01-16T06:33:21.451Z,30.55
2024-01-16T06:35:51.042Z,37.88
2024-01-16T06:38:19.989Z,33.25
2024-01-16T06:40:47.154Z,35.40
2024-01-16T06:43:16.643Z,29.25
2024-01-16T06:45:44.256Z,30.10
2024-01-16T06:48:11.970Z,30.83
2024-01-16T06:50:39.402Z,28.67
2024-01-16T06:53:06.542Z,28.02
2024-01-16T06:55:33.690Z,30.70
2024-01-16T06:58:00.842Z,34.80
2024-01-16T07:00:28.625Z,32.95
2024-01-16T07:02:56.152Z,37.38
2024-01-16T07:05:23.458Z,32.55
2024-01-16T07:07:50.774Z,28.42
2024-01-16T07:10:23.377Z,29.02
2024-01-16T07:12:52.406Z,36.25
2024-01-16T07:15:19.884Z,27.73
2024-01-16T07:17:47.738Z,31.77
2024-01-16T07:20:15.028Z,36.03
2024-01-16T07:22:42.246Z,32.92
2024-01-16T07:25:09.734Z,32.97
2024-01-16T07:27:37.377Z,36.10
2024-01-16T07:30:08.084Z,32.20
2024-01-16T07:32:35.943Z,34.60
2024-01-16T07:35:04.113Z,32.65
2024-01-16T07:37:31.497Z,30.02
2024-01-16T07:39:58.664Z,31.65
2024-01-16T07:42:25.861Z,27.40
2024-01-16T07:44:53.132Z,33.08
2024-01-16T07:47:20.424Z,24.35
2024-01-16T07:49:47.535Z,32.58
2024-01-16T07:52:14.782Z,28.80
2024-01-16T07:54:41.908Z,24.70
2024-01-16T07:57:09.040Z,27.17
2024-01-16T07:59:36.181Z,29.58
2024-01-16T08:02:04.007Z,26.95
2024-01-16T08:04:31.114Z,28.10
2024-01-16T08:06:58.301Z,25.08
2024-01-16T08:09:26.348Z,27.83
2024-01-16T08:11:53.571Z,27.52
2024-01-16T08:14:20.727Z,27.35
2024-01-16T08:16:48.317Z,30.08
2024-01-16T08:19:16.227Z,29.80
2024-01-16T08:21:44.670Z,27.85
2024-01-16T08:24:11.866Z,23.60
2024-01-16T08:26:39.089Z,25.33
2024-01-16T08:29:06.405Z,25.75
2024-01-16T08:31:33.600Z,28.40
2024-01-16T08:34:01.216Z,22.58
2024-01-16T08:36:28.498Z,26.50
2024-01-16T08:38:56.754Z,24.80
2024-01-16T08:41:24.072Z,25.45
2024-01-16T08:43:52.131Z,26.05
2024-01-16T08:46:20.989Z,24.90
2024-01-16T08:48:48.366Z,24.40
2024-01-16T08:51:16.137Z,19.17
2024-01-16T08:53:43.701Z,22.67
2024-01-16T08:56:13.314Z,24.70
2024-01-16T08:58:41.590Z,24.63
2024-01-16T09:01:09.073Z,17.27
2024-01-16T09:03:37.152Z,17.48
2024-01-16T09:06:04.731Z,19.77
2024-01-16T09:08:33.198Z,14.90
2024-01-16T09:11:00.403Z,17.38
2024-01-16T09:13:27.539Z,18.08
2024-01-16T09:15:54.998Z,14.15
2024-01-16T09:18:22.262Z,13.38
2024-01-16T09:20:49.769Z,12.18
2024-01-16T09:23:17.065Z,8.90
2024-01-16T09:25:46.140Z,10.93
2024-01-16T09:28:15.821Z,11.27
2024-01-16T09:30:44.003Z,14.60
2024-01-16T09:33:11.996Z,10.88
2024-01-16T09:35:39.426Z,12.57
2024-01-16T09:38:06.613Z,12.05
2024-01-16T09:40:34.402Z,12.98
2024-01-16T09:43:01.548Z,13.05
2024-01-16T09:45:29.876Z,13.98
2024-01-16T09:47:58.110Z,16.92
2024-01-16T09:50:25.392Z,11.95
2024-01-16T09:52:52.625Z,14.02
2024-01-16T09:55:19.743Z,16.25
2024-01-16T09:57:47.717Z,16.08
2024-01-16T10:00:15.151Z,14.68
2024-01-16T10:02:42.672Z,16.13
2024-01-16T10:05:10.444Z,16.20
2024-01-16T10:07:39.066Z,12.63
2024-01-16T10:10:06.569Z,14.02
2024-01-16T10:12:34.153Z,17.38
2024-01-16T10:15:01.626Z,15.13
2024-01-16T10:17:42.128Z,15.55
2024-01-16T10:20:14.583Z,14.87
2024-01-16T10:22:42.191Z,14.93
2024-01-16T10:25:10.806Z,13.60
2024-01-16T10:27:38.481Z,16.27
2024-01-16T10:30:06.203Z,12.43
2024-01-16T10:32:35.330Z,13.55
2024-01-16T10:35:05.752Z,9.57
2024-01-16T10:37:43.163Z,11.10
2024-01-16T10:40:10.425Z,12.75
2024-01-16T10:42:38.376Z,9.00
2024-01-16T10:45:06.896Z,13.23
2024-01-16T10:47:38.329Z,12.15
2024-01-16T10:50:08.234Z,10.80
2024-01-16T10:52:35.957Z,10.18
2024-01-16T10:55:06.187Z,7.80
2024-01-16T10:57:33.861Z,6.10
2024-01-16T11:00:05.949Z,7.45
2024-01-16T11:02:59.505Z,4.28
2024-01-16T11:05:27.738Z,6.22
2024-01-16T11:07:57.193Z,6.90
2024-01-16T11:10:25.908Z,5.90
2024-01-16T11:12:53.296Z,4.97
2024-01-16T11:15:21.107Z,8.23
2024-01-16T11:17:48.859Z,6.00
2024-01-16T11:20:37.049Z,7.22
2024-01-16T11:23:04.005Z,6.95
2024-01-16T11:25:35.044Z,5.35
2024-01-16T11:28:12.985Z,4.40
2024-01-16T11:30:40.297Z,5.85
2024-01-16T11:33:07.856Z,4.93
2024-01-16T11:35:38.896Z,4.85
2024-01-16T11:38:07.230Z,7.75
2024-01-16T11:40:34.520Z,5.00
2024-01-16T11:43:21.673Z,6.70
2024-01-16T11:45:52.420Z,5.78
2024-01-16T11:48:20.825Z,5.47
2024-01-16T11:50:48.617Z,7.00
2024-01-16T11:53:37.668Z,4.05
2024-01-16T11:56:30.815Z,3.67
2024-01-16T11:59:08.442Z,5.07
2024-01-16T12:01:37.023Z,3.70
2024-01-16T12:04:07.301Z,4.45
2024-01-16T12:06:35.811Z,3.58
2024-01-16T12:09:13.445Z,4.07
2024-01-16T12:11:43.813Z,4.18
2024-01-16T12:14:11.345Z,4.45
2024-01-16T12:16:39.027Z,3.40
2024-01-16T12:19:09.827Z,5.03
2024-01-16T12:21:41.168Z,8.68
2024-01-16T12:24:11.229Z,5.10
2024-01-16T12:26:42.576Z,5.75
2024-01-16T12:29:09.850Z,7.20
2024-01-16T12:31:37.030Z,6.85
2024-01-16T12:34:11.018Z,6.90
2024-01-16T12:36:39.486Z,5.93
2024-01-16T12:39:07.919Z,7.75
2024-01-16T12:41:42.903Z,6.82
2024-01-16T12:44:15.556Z,7.22
2024-01-16T12:46:44.548Z,6.00
2024-01-16T12:49:12.638Z,5.72
2024-01-16T12:51:40.158Z,6.82
2024-01-16T12:54:14.691Z,5.63
2024-01-16T12:56:42.137Z,6.85
2024-01-16T12:59:15.792Z,9.10
2024-01-16T13:01:44.230Z,6.45
2024-01-16T13:04:17.136Z,6.50
2024-01-16T13:06:45.357Z,6.25
2024-01-16T13:09:22.033Z,7.53
2024-01-16T13:11:57.074Z,8.10
2024-01-16T13:14:24.935Z,8.93
2024-01-16T13:16:58.463Z,7.97
2024-01-16T13:19:26.855Z,7.88
2024-01-16T13:21:55.113Z,8.65
2024-01-16T13:24:25.126Z,9.75
2024-01-16T13:26:53.106Z,8.15
2024-01-16T13:29:21.023Z,8.73
2024-01-16T13:31:49.270Z,10.25
2024-01-16T13:34:19.324Z,10.57
2024-01-16T13:37:00.117Z,13.13
2024-01-16T13:39:39.269Z,7.28
2024-01-16T13:42:07.974Z,8.68
2024-01-16T13:44:35.256Z,7.55
2024-01-16T13:47:08.264Z,8.20
2024-01-16T13:49:38.892Z,10.00
2024-01-16T13:52:06.379Z,11.38
2024-01-16T13:54:33.501Z,9.25
2024-01-16T13:57:06.794Z,8.55
2024-01-16T13:59:36.661Z,7.63
2024-01-16T14:02:09.431Z,9.80
2024-01-16T14:04:36.926Z,7.63
2024-01-16T14:07:12.241Z,7.18
2024-01-16T14:09:46.352Z,7.90
2024-01-16T14:12:14.248Z,9.80
2024-01-16T14:14:42.542Z,7.65
2024-01-16T14:17:09.923Z,9.30
2024-01-16T14:19:37.214Z,10.65
2024-01-16T14:22:04.704Z,8.73
2024-01-16T14:24:31.947Z,9.15
2024-01-16T14:26:59.134Z,12.00
2024-01-16T14:29:28.003Z,7.43
2024-01-16T14:31:57.339Z,9.70
2024-01-16T14:34:25.180Z,6.32
2024-01-16T14:36:52.474Z,9.48
2024-01-16T14:39:26.207Z,10.13
2024-01-16T14:41:54.099Z,11.40
2024-01-16T14:44:21.303Z,15.18
2024-01-16T14:46:50.918Z,8.80
2024-01-16T14:49:20.150Z,9.55
2024-01-16T14:51:47.723Z,10.25
2024-01-16T14:54:15.175Z,13.77
2024-01-16T14:56:42.416Z,9.52
2024-01-16T14:59:13.090Z,11.13
2024-01-16T15:01:42.300Z,9.02
2024-01-16T15:04:10.252Z,12.02
2024-01-16T15:06:37.564Z,7.63
2024-01-16T15:09:05.495Z,11.55
2024-01-16T15:11:32.849Z,8.23
2024-01-16T15:14:00.086Z,9.93
2024-01-16T15:16:27.273Z,8.38
2024-01-16T15:18:54.560Z,12.27
2024-01-16T15:21:21.760Z,12.07
2024-01-16T15:23:49.175Z,9.30
2024-01-16T15:26:21.608Z,9.20
2024-01-16T15:28:50.428Z,11.98
2024-01-16T15:31:18.770Z,11.63
2024-01-16T15:33:46.291Z,12.57
2024-01-16T15:36:13.501Z,10.15
2024-01-16T15:38:40.733Z,10.77
2024-01-16T15:41:07.877Z,16.90
2024-01-16T15:43:35.179Z,11.80
2024-01-16T15:46:02.538Z,10.55
2024-01-16T15:48:35.250Z,10.02
2024-01-16T15:51:04.309Z,10.00
2024-01-16T15:53:34.355Z,11.13
2024-01-16T15:56:01.454Z,10.70
2024-01-16T15:58:32.444Z,12.13
2024-01-16T16:01:00.427Z,11.23
2024-01-16T16:03:27.822Z,10.48
2024-01-16T16:05:55.203Z,14.38
2024-01-16T16:08:22.803Z,11.57
2024-01-16T16:10:50.031Z,11.60
2024-01-16T16:13:18.753Z,8.18
2024-01-16T16:15:47.043Z,13.63
2024-01-16T16:18:14.364Z,12.98
2024-01-16T16:20:41.845Z,9.50
2024-01-16T16:23:09.088Z,12.25
2024-01-16T16:25:36.208Z,11.23
2024-01-16T16:28:03.371Z,11.77
2024-01-16T16:30:30.675Z,9.20
2024-01-16T16:32:57.943Z,11.95
2024-01-16T16:35:25.403Z,9.52
2024-01-16T16:37:52.621Z,12.30
2024-01-16T16:40:19.726Z,12.43
2024-01-16T16:42:46.908Z,14.32
2024-01-16T16:45:14.102Z,12.02
2024-01-16T16:47:41.373Z,11.32
2024-01-16T16:50:10.311Z,14.43
2024-01-16T16:52:38.074Z,11.40
2024-01-16T16:55:05.945Z,12.15
2024-01-16T16:57:33.418Z,11.07
2024-01-16T17:00:01.009Z,12.70
2024-01-16T17:02:28.313Z,13.07
2024-01-16T17:04:55.599Z,13.77
2024-01-16T17:07:23.033Z,10.82
2024-01-16T17:09:50.214Z,8.27
2024-01-16T17:12:17.485Z,9.65
2024-01-16T17:14:44.688Z,12.77
2024-01-16T17:17:12.178Z,12.88
2024-01-16T17:19:39.787Z,9.50
2024-01-16T17:22:07.074Z,13.13
2024-01-16T17:24:35.672Z,11.88
2024-01-16T17:27:03.216Z,12.10
2024-01-16T17:29:30.900Z,11.73
2024-01-16T17:31:59.453Z,15.00
2024-01-16T17:34:26.694Z,13.15
2024-01-16T17:36:53.932Z,11.52
2024-01-16T17:39:22.505Z,12.32
2024-01-16T17:41:49.919Z,16.80
2024-01-16T17:44:17.323Z,12.20
2024-01-16T17:46:47.866Z,11.43
2024-01-16T17:49:15.702Z,17.45
2024-01-16T17:51:43.085Z,10.15
2024-01-16T17:54:10.197Z,12.32
2024-01-16T17:56:38.192Z,10.32
2024-01-16T17:59:05.504Z,13.88
2024-01-16T18:01:33.879Z,14.18
2024-01-16T18:04:01.603Z,12.38
2024-01-16T18:06:29.188Z,14.70
2024-01-16T18:08:56.530Z,14.05
2024-01-16T18:11:24.324Z,14.18
2024-01-16T18:13:51.636Z,13.00
2024-01-16T18:16:18.953Z,11.25
2024-01-16T18:18:46.343Z,14.65
2024-01-16T18:21:14.135Z,12.52
2024-01-16T18:23:42.158Z,13.57
2024-01-16T18:26:11.948Z,14.13
2024-01-16T18:28:39.142Z,13.07
2024-01-16T18:31:06.336Z,14.65
2024-01-16T18:33:34.380Z,13.90
2024-01-16T18:36:03.571Z,15.77
2024-01-16T18:38:30.859Z,14.43
2024-01-16T18:40:59.541Z,14.52
2024-01-16T18:43:28.883Z,13.18
2024-01-16T18:45:56.164Z,15.95
2024-01-16T18:48:23.654Z,15.25
2024-01-16T18:50:52.364Z,14.13
2024-01-16T18:53:21.215Z,20.90
2024-01-16T18:55:49.619Z,19.17
2024-01-16T18:58:18.116Z,21.13
2024-01-16T19:00:45.637Z,15.38
2024-01-16T19:03:15.147Z,15.55
2024-01-16T19:05:42.805Z,20.35
2024-01-16T19:08:11.391Z,15.45
2024-01-16T19:10:39.182Z,15.95
2024-01-16T19:13:06.415Z,14.70
2024-01-16T19:15:33.626Z,18.55
2024-01-16T19:18:00.904Z,19.55
2024-01-16T19:20:29.350Z,19.95
2024-01-16T19:22:56.977Z,16.27
2024-01-16T19:25:26.580Z,17.88
2024-01-16T19:27:55.769Z,20.17
2024-01-16T19:30:23.944Z,16.85
2024-01-16T19:32:51.665Z,17.00
2024-01-16T19:35:19.385Z,15.40
2024-01-16T19:37:46.990Z,18.27
2024-01-16T19:40:17.205Z,19.67
2024-01-16T19:42:44.730Z,11.95
2024-01-16T19:45:12.770Z,14.98
2024-01-16T19:47:41.675Z,16.85
2024-01-16T19:50:23.210Z,18.67
2024-01-16T19:52:52.660Z,17.98
2024-01-16T19:55:22.952Z,17.98
2024-01-16T19:57:50.964Z,19.40
2024-01-16T20:00:18.418Z,18.30
2024-01-16T20:02:45.921Z,18.85
2024-01-16T20:05:16.563Z,17.55
2024-01-16T20:07:44.417Z,17.02
2024-01-16T20:10:15.516Z,17.65
2024-01-16T20:15:17.342Z,21.73
2024-01-16T20:17:45.418Z,21.58
2024-01-16T20:20:13.968Z,18.40
2024-01-16T20:22:42.126Z,19.73
2024-01-16T20:25:09.804Z,19.05
2024-01-16T20:27:37.975Z,19.17
2024-01-16T20:30:06.925Z,15.65
2024-01-16T20:32:34.801Z,17.58
2024-01-16T20:35:02.505Z,17.67
2024-01-16T20:37:34.268Z,19.65
2024-01-16T20:40:01.645Z,16.52
2024-01-16T20:42:28.777Z,16.42
2024-01-16T20:44:56.035Z,16.55
2024-01-16T20:47:23.207Z,14.45
2024-01-16T20:49:50.494Z,17.67
2024-01-16T20:52:17.841Z,15.75
2024-01-16T20:54:45.156Z,12.02
2024-01-16T20:57:12.343Z,14.45
2024-01-16T20:59:40.479Z,10.05
2024-01-16T21:02:07.987Z,13.48
2024-01-16T21:04:35.479Z,13.70
2024-01-16T21:07:05.023Z,15.80
2024-01-16T21:09:32.709Z,14.63
2024-01-16T21:12:01.918Z,12.07
2024-01-16T21:14:30.656Z,14.95
2024-01-16T21:16:58.203Z,14.32
2024-01-16T21:19:25.393Z,11.65
2024-01-16T21:21:55.629Z,11.50
2024-01-16T21:24:22.966Z,9.30
2024-01-16T21:26:50.386Z,11.02
2024-01-16T21:29:17.657Z,17.25
2024-01-16T21:31:45.565Z,17.05
2024-01-16T21:34:14.025Z,13.07
2024-01-16T21:36:41.320Z,12.38
2024-01-16T21:39:08.556Z,13.10
2024-01-16T21:41:37.127Z,7.80
2024-01-16T21:44:06.453Z,12.73
2024-01-16T21:46:33.829Z,10.52
2024-01-16T21:49:01.269Z,10.23
2024-01-16T21:51:28.849Z,13.32
2024-01-16T21:53:56.975Z,13.63
2024-01-16T21:56:24.294Z,11.13
2024-01-16T21:58:51.523Z,13.93
2024-01-16T22:01:21.325Z,12.52
2024-01-16T22:03:49.184Z,12.27
2024-01-16T22:06:16.651Z,13.77
2024-01-16T22:08:54.079Z,14.55
2024-01-16T22:11:21.323Z,11.68
2024-01-16T22:13:48.521Z,17.65
2024-01-16T22:16:15.855Z,13.70
2024-01-16T22:18:46.349Z,9.52
2024-01-16T22:21:15.726Z,14.27
2024-01-16T22:23:42.917Z,14.95
2024-01-16T22:26:10.165Z,17.98
2024-01-16T22:28:38.874Z,17.25
2024-01-16T22:31:07.807Z,15.70
2024-01-16T22:33:35.184Z,11.48
2024-01-16T22:36:02.735Z,19.13
2024-01-16T22:38:30.045Z,22.10
2024-01-16T22:40:57.677Z,19.73
2024-01-16T22:43:24.843Z,9.93
2024-01-16T22:45:52.894Z,19.05
2024-01-16T22:48:20.498Z,21.17
2024-01-16T22:50:50.739Z,13.10
2024-01-16T22:53:18.355Z,16.43
2024-01-16T22:55:47.181Z,16.65
2024-01-16T22:58:14.542Z,18.27
2024-01-16T23:00:43.252Z,17.75
2024-01-16T23:03:12.798Z,17.10
2024-01-16T23:05:45.248Z,16.83
2024-01-16T23:08:12.551Z,13.25
2024-01-16T23:10:39.961Z,17.75
2024-01-16T23:13:07.191Z,16.20
2024-01-16T23:15:34.300Z,16.05
2024-01-16T23:18:01.711Z,18.88
2024-01-16T23:20:29.171Z,20.73
2024-01-16T23:22:57.197Z,19.70
2024-01-16T23:25:24.521Z,15.60
2024-01-16T23:27:51.643Z,22.40
2024-01-16T23:30:21.981Z,16.52
2024-01-16T23:32:49.286Z,18.58
2024-01-16T23:35:16.769Z,18.37
2024-01-16T23:37:45.205Z,19.73
2024-01-16T23:40:13.929Z,19.80
2024-01-16T23:42:42.367Z,17.97
2024-01-16T23:45:20.528Z,17.95
2024-01-16T23:47:54.683Z,19.90
2024-01-16T23:50:22.509Z,17.00
2024-01-16T23:52:52.692Z,18.60
2024-01-16T23:55:19.904Z,16.67
2024-01-16T23:57:47.322Z,15.15
